Time;durP1;ratioP1;P1;durP2;ratioP2;P2;SDS_P1;SDS_P2;PMS_P1;PMS_P2;Temp;Humidity;BMP_temperature;BMP_pressure;BME280_temperature;BME280_humidity;BME280_pressure;Samples;Min_cycle;Max_cycle;Signal;HPM_P1;HPM_P2
2022/09/16 00:01:50;;;;;;;7.47;5.10;;;21.00;60.40;;;;;;5044491;28;20193;-47
2022/09/16 00:04:16;;;;;;;5.90;5.30;;;21.00;60.10;;;;;;5050959;28;20268;-49
2022/09/16 00:06:42;;;;;;;5.33;4.93;;;20.90;59.90;;;;;;5038001;28;20204;-50
2022/09/16 00:09:08;;;;;;;5.80;5.30;;;20.90;60.00;;;;;;5042999;28;20448;-47
2022/09/16 00:11:34;;;;;;;7.50;5.83;;;20.80;60.60;;;;;;5044755;28;20262;-47
2022/09/16 00:14:00;;;;;;;6.03;4.77;;;20.80;60.30;;;;;;5040805;28;20438;-47
2022/09/16 00:16:28;;;;;;;5.67;5.23;;;20.80;60.60;;;;;;5041536;28;20245;-47
2022/09/16 00:18:55;;;;;;;5.60;5.10;;;20.80;61.10;;;;;;5036815;28;20192;-47
2022/09/16 00:21:21;;;;;;;5.63;5.03;;;20.80;61.70;;;;;;5040764;28;22457;-47
2022/09/16 00:23:47;;;;;;;6.00;5.37;;;20.90;61.70;;;;;;5037204;28;20435;-48
2022/09/16 00:26:13;;;;;;;5.40;5.00;;;20.90;61.00;;;;;;5044730;28;20461;-47
2022/09/16 00:28:39;;;;;;;5.40;4.80;;;20.90;61.00;;;;;;5043647;28;20196;-49
2022/09/16 00:31:04;;;;;;;5.67;5.27;;;21.00;61.10;;;;;;5042299;28;20440;-47
2022/09/16 00:33:31;;;;;;;6.07;4.83;;;21.00;60.60;;;;;;5044011;28;20435;-47
2022/09/16 00:36:08;;;;;;;5.27;4.77;;;21.00;60.10;;;;;;5033781;28;20242;-47
2022/09/16 00:38:33;;;;;;;5.70;5.20;;;21.00;60.30;;;;;;5035626;28;20570;-46
2022/09/16 00:40:59;;;;;;;6.20;4.93;;;21.00;60.30;;;;;;5044797;28;20581;-47
2022/09/16 00:43:25;;;;;;;5.63;5.10;;;21.00;60.10;;;;;;5035563;28;20679;-48
2022/09/16 00:45:59;;;;;;;6.47;5.97;;;21.00;60.30;;;;;;5043246;28;20185;-51
2022/09/16 00:48:28;;;;;;;5.47;5.03;;;21.10;60.60;;;;;;5036025;28;20200;-47
2022/09/16 00:51:02;;;;;;;7.30;5.90;;;21.10;61.20;;;;;;5038680;28;20949;-47
2022/09/16 00:53:32;;;;;;;6.10;5.40;;;21.10;60.70;;;;;;5033587;28;20797;-46
2022/09/16 00:56:01;;;;;;;6.53;5.03;;;21.10;60.60;;;;;;5032655;28;20478;-46
2022/09/16 00:58:35;;;;;;;5.80;5.30;;;20.90;59.90;;;;;;5032080;28;20443;-47
2022/09/16 01:01:04;;;;;;;6.27;5.47;;;20.90;60.60;;;;;;5041804;28;20863;-47
2022/09/16 01:03:33;;;;;;;6.77;6.17;;;20.90;60.80;;;;;;5039809;28;20817;-47
2022/09/16 01:05:58;;;;;;;5.60;5.10;;;20.90;60.60;;;;;;5039656;28;20574;-47
2022/09/16 01:08:24;;;;;;;6.30;5.80;;;20.90;60.40;;;;;;5035604;28;20561;-47
2022/09/16 01:10:50;;;;;;;5.77;5.27;;;20.80;60.40;;;;;;5036552;28;20231;-47
2022/09/16 01:13:15;;;;;;;8.73;6.37;;;20.80;60.60;;;;;;5041994;28;20192;-48
2022/09/16 01:16:00;;;;;;;8.63;6.40;;;20.80;60.60;;;;;;5035782;28;20649;-46
2022/09/16 01:18:36;;;;;;;10.20;6.30;;;20.80;61.00;;;;;;5037901;28;20237;-47
2022/09/16 01:21:24;;;;;;;5.83;5.30;;;20.80;60.90;;;;;;5038773;28;20486;-48
2022/09/16 01:24:34;;;;;;;6.40;5.80;;;20.80;60.90;;;;;;5035225;28;20937;-47
2022/09/16 01:27:31;;;;;;;5.60;5.00;;;20.80;61.30;;;;;;5023695;28;20827;-52
2022/09/16 01:30:18;;;;;;;6.37;5.20;;;20.70;61.30;;;;;;5038457;28;20458;-51
2022/09/16 01:32:56;;;;;;;6.33;5.10;;;20.80;61.80;;;;;;5032795;28;20451;-51
2022/09/16 01:35:47;;;;;;;5.57;5.07;;;20.70;61.80;;;;;;5050182;28;20579;-52
2022/09/16 01:38:21;;;;;;;6.43;5.40;;;20.80;61.90;;;;;;5043649;28;20443;-51
2022/09/16 01:40:47;;;;;;;5.10;4.70;;;20.70;61.60;;;;;;5038071;28;20487;-51
2022/09/16 01:43:29;;;;;;;5.60;5.10;;;20.70;61.80;;;;;;5036830;28;20453;-50
2022/09/16 01:45:57;;;;;;;6.63;4.83;;;20.80;61.90;;;;;;5038197;28;20193;-52
2022/09/16 01:48:40;;;;;;;6.77;5.13;;;20.80;61.50;;;;;;5044297;28;20438;-50
2022/09/16 01:51:11;;;;;;;5.23;4.83;;;20.80;61.60;;;;;;5045265;28;20474;-52
2022/09/16 01:53:45;;;;;;;5.57;5.07;;;20.80;61.90;;;;;;5050948;28;20546;-51
2022/09/16 01:56:21;;;;;;;6.47;5.60;;;20.80;62.20;;;;;;5057252;28;20769;-52
2022/09/16 01:58:53;;;;;;;6.13;5.53;;;20.80;62.00;;;;;;5046235;28;20454;-50
2022/09/16 02:01:28;;;;;;;5.90;5.27;;;20.80;61.70;;;;;;5044750;28;20494;-51
2022/09/16 02:04:00;;;;;;;6.07;5.47;;;20.80;61.80;;;;;;5046356;28;20824;-50
2022/09/16 02:06:28;;;;;;;8.43;5.20;;;20.80;61.60;;;;;;5053763;28;20990;-51
2022/09/16 02:08:59;;;;;;;7.80;5.17;;;20.70;61.20;;;;;;5047280;28;20446;-49
2022/09/16 02:11:24;;;;;;;5.20;4.80;;;20.70;61.00;;;;;;5050911;28;20454;-51
2022/09/16 02:13:55;;;;;;;5.33;4.83;;;20.70;61.10;;;;;;5050205;28;20439;-48
2022/09/16 02:16:31;;;;;;;5.17;4.80;;;20.70;61.00;;;;;;5043171;28;20206;-51
2022/09/16 02:19:01;;;;;;;5.70;5.00;;;20.70;61.00;;;;;;5047787;28;20442;-50
2022/09/16 02:21:30;;;;;;;5.43;4.93;;;20.70;61.00;;;;;;5044254;28;20494;-51
2022/09/16 02:24:00;;;;;;;5.50;5.10;;;20.70;61.10;;;;;;5043833;28;20432;-52
2022/09/16 02:26:46;;;;;;;6.30;5.00;;;20.70;60.90;;;;;;5035691;28;20497;-49
2022/09/16 02:29:16;;;;;;;7.90;5.30;;;20.70;60.90;;;;;;5034422;28;20454;-51
2022/09/16 02:31:43;;;;;;;9.07;5.20;;;20.70;60.90;;;;;;5053346;28;20442;-51
2022/09/16 02:34:16;;;;;;;5.47;4.97;;;20.70;60.80;;;;;;5043521;28;20447;-51
2022/09/16 02:36:46;;;;;;;6.03;5.43;;;20.70;60.60;;;;;;5038239;28;20443;-50
2022/09/16 02:39:17;;;;;;;6.73;5.37;;;20.70;60.40;;;;;;5043551;28;20439;-51
2022/09/16 02:41:43;;;;;;;8.20;5.23;;;20.70;60.60;;;;;;5039700;28;20888;-51
2022/09/16 02:44:10;;;;;;;5.43;5.03;;;20.70;60.60;;;;;;5047861;28;20474;-50
2022/09/16 02:46:42;;;;;;;6.33;5.20;;;20.70;60.80;;;;;;5031039;28;20209;-50
2022/09/16 02:49:17;;;;;;;6.07;5.57;;;20.70;60.80;;;;;;5044913;28;20451;-51
2022/09/16 02:52:10;;;;;;;5.87;5.30;;;20.70;60.70;;;;;;5042551;28;20447;-47
2022/09/16 02:54:46;;;;;;;7.80;5.70;;;20.60;60.20;;;;;;5053841;28;20493;-51
2022/09/16 02:57:13;;;;;;;5.23;4.73;;;20.50;60.60;;;;;;5046654;28;20968;-51
2022/09/16 02:59:38;;;;;;;5.30;4.80;;;20.50;60.80;;;;;;5040868;28;20545;-52
2022/09/16 03:02:04;;;;;;;7.77;5.77;;;20.50;61.10;;;;;;5048554;28;20443;-47
2022/09/16 03:04:30;;;;;;;6.27;5.57;;;20.50;61.20;;;;;;5051683;28;20199;-47
2022/09/16 03:06:56;;;;;;;5.70;5.20;;;20.50;61.20;;;;;;5047038;28;20795;-47
2022/09/16 03:09:23;;;;;;;6.10;5.50;;;20.60;61.50;;;;;;5052972;28;20193;-47
2022/09/16 03:12:07;;;;;;;8.60;4.80;;;20.60;61.20;;;;;;5049725;28;20594;-48
2022/09/16 03:15:04;;;;;;;6.47;4.80;;;20.60;60.90;;;;;;5054052;28;20496;-48
2022/09/16 03:18:10;;;;;;;5.57;5.00;;;20.50;61.10;;;;;;5045711;28;20447;-47
2022/09/16 03:20:38;;;;;;;5.57;5.07;;;20.50;61.10;;;;;;5035652;28;20498;-48
2022/09/16 03:23:07;;;;;;;5.37;4.97;;;20.50;61.10;;;;;;5041591;28;20454;-47
2022/09/16 03:25:53;;;;;;;9.73;5.13;;;20.40;61.10;;;;;;5044441;28;20476;-47
2022/09/16 03:32:16;;;;;;;5.40;4.90;;;20.40;60.70;;;;;;5141474;23;20494;-51
2022/09/16 03:34:53;;;;;;;5.47;4.97;;;20.40;60.40;;;;;;5027993;28;20454;-47
2022/09/16 03:37:22;;;;;;;5.50;5.00;;;20.40;60.30;;;;;;5024362;28;20504;-52
2022/09/16 03:39:54;;;;;;;4.73;4.33;;;20.40;60.30;;;;;;5031669;28;20989;-49
2022/09/16 03:42:20;;;;;;;5.70;5.17;;;20.40;60.50;;;;;;5025355;28;20452;-47
2022/09/16 03:44:46;;;;;;;5.30;4.90;;;20.40;60.50;;;;;;5031151;28;20443;-52
2022/09/16 03:47:11;;;;;;;7.40;5.33;;;20.40;60.20;;;;;;5027656;28;20447;-46
2022/09/16 03:49:37;;;;;;;6.10;5.60;;;20.40;60.40;;;;;;5030886;28;20244;-47
2022/09/16 03:52:07;;;;;;;8.67;5.13;;;20.30;60.50;;;;;;5023665;28;20226;-47
2022/09/16 03:54:33;;;;;;;6.77;6.03;;;20.30;61.00;;;;;;5029856;28;20448;-51
2022/09/16 03:56:59;;;;;;;10.03;6.10;;;20.20;61.40;;;;;;5026157;28;20458;-48
2022/09/16 03:59:26;;;;;;;5.53;5.00;;;20.20;61.50;;;;;;5019539;28;20504;-46
2022/09/16 04:01:51;;;;;;;5.70;5.20;;;20.20;61.60;;;;;;5035510;28;20254;-46
2022/09/16 04:04:17;;;;;;;6.00;5.40;;;20.20;61.70;;;;;;5017688;28;20436;-51
2022/09/16 04:06:43;;;;;;;5.20;4.70;;;20.20;61.80;;;;;;5031993;28;20189;-46
2022/09/16 04:09:12;;;;;;;5.93;5.43;;;20.30;62.20;;;;;;5029178;28;20201;-48
2022/09/16 04:11:39;;;;;;;6.63;5.10;;;20.30;61.90;;;;;;5028285;28;20443;-49
2022/09/16 04:14:05;;;;;;;8.47;6.00;;;20.30;61.90;;;;;;5025123;28;21025;-50
2022/09/16 04:16:31;;;;;;;6.13;5.53;;;20.30;61.80;;;;;;5018810;28;20775;-47
2022/09/16 04:18:57;;;;;;;5.47;4.97;;;20.40;61.90;;;;;;5030800;28;20443;-48
2022/09/16 04:21:23;;;;;;;6.63;5.40;;;20.40;61.80;;;;;;5031263;28;20491;-51
2022/09/16 04:23:49;;;;;;;10.03;5.13;;;20.40;61.40;;;;;;5031369;28;20511;-47
2022/09/16 04:26:16;;;;;;;5.80;5.27;;;20.40;61.40;;;;;;5032218;28;20288;-47
2022/09/16 04:28:42;;;;;;;7.60;5.93;;;20.40;61.20;;;;;;5029018;28;20447;-53
2022/09/16 04:31:11;;;;;;;6.13;5.57;;;20.40;60.90;;;;;;5026541;28;20991;-47
2022/09/16 04:33:37;;;;;;;7.07;5.50;;;20.40;61.50;;;;;;5027075;28;20445;-48
2022/09/16 04:36:07;;;;;;;5.63;5.13;;;20.40;61.60;;;;;;5022866;28;20965;-48
2022/09/16 04:38:33;;;;;;;7.77;5.70;;;20.40;61.50;;;;;;5026275;28;20451;-51
2022/09/16 04:41:04;;;;;;;5.60;5.10;;;20.40;62.30;;;;;;5023699;28;20987;-51
2022/09/16 04:43:30;;;;;;;6.07;5.47;;;20.40;61.40;;;;;;5029066;28;20814;-47
2022/09/16 04:45:56;;;;;;;6.10;5.50;;;20.30;61.20;;;;;;5027585;28;20432;-51
2022/09/16 04:48:22;;;;;;;9.30;7.40;;;20.30;61.40;;;;;;5030257;28;20205;-51
2022/09/16 04:50:48;;;;;;;6.03;5.53;;;20.30;61.60;;;;;;5026330;28;21964;-46
2022/09/16 04:53:13;;;;;;;5.73;5.23;;;20.20;62.10;;;;;;5027249;28;20839;-50
2022/09/16 04:55:39;;;;;;;7.17;6.07;;;20.30;61.80;;;;;;5017720;28;20212;-49
2022/09/16 04:58:04;;;;;;;7.00;5.30;;;20.20;61.60;;;;;;5023638;28;20227;-50
2022/09/16 05:00:30;;;;;;;12.13;5.60;;;20.20;62.10;;;;;;5026410;28;20225;-49
2022/09/16 05:02:56;;;;;;;5.37;4.93;;;20.20;62.10;;;;;;5023503;28;20239;-47
2022/09/16 05:05:22;;;;;;;5.70;5.23;;;20.10;61.80;;;;;;5021518;28;20198;-47
2022/09/16 05:07:48;;;;;;;5.77;5.33;;;20.10;61.80;;;;;;5025062;28;20743;-49
2022/09/16 05:10:13;;;;;;;10.03;5.83;;;20.10;62.10;;;;;;5027165;28;20444;-51
2022/09/16 05:12:39;;;;;;;5.37;4.90;;;20.20;63.10;;;;;;5027519;28;20201;-46
2022/09/16 05:15:06;;;;;;;12.60;4.00;;;20.20;62.40;;;;;;5026372;28;20248;-46
2022/09/16 05:17:32;;;;;;;6.30;4.47;;;20.10;64.80;;;;;;5026689;28;20280;-49
2022/09/16 05:19:57;;;;;;;4.30;3.90;;;20.30;63.90;;;;;;5024139;28;20622;-50
2022/09/16 05:22:23;;;;;;;7.10;4.40;;;20.60;62.80;;;;;;5019849;28;20197;-48
2022/09/16 05:24:48;;;;;;;7.60;4.20;;;20.70;61.80;;;;;;5015759;28;20193;-47
2022/09/16 05:27:15;;;;;;;5.10;4.50;;;20.90;61.00;;;;;;5026367;28;20268;-50
2022/09/16 05:29:40;;;;;;;5.17;3.60;;;21.00;60.20;;;;;;5028430;28;20228;-50
2022/09/16 05:32:06;;;;;;;9.23;4.60;;;21.00;60.00;;;;;;5026411;28;20467;-46
2022/09/16 05:34:34;;;;;;;4.37;3.97;;;21.10;60.80;;;;;;5024838;28;20201;-47
2022/09/16 05:37:00;;;;;;;5.23;4.33;;;21.10;59.90;;;;;;5021733;28;20531;-46
2022/09/16 05:39:26;;;;;;;6.60;4.27;;;21.20;59.50;;;;;;5019580;28;20925;-49
2022/09/16 05:41:57;;;;;;;4.27;3.97;;;21.30;59.30;;;;;;5026839;28;21311;-48
2022/09/16 05:44:24;;;;;;;7.37;4.50;;;21.30;59.20;;;;;;5022385;28;20221;-49
2022/09/16 05:46:50;;;;;;;4.60;4.03;;;21.30;59.10;;;;;;5028838;28;20432;-48
2022/09/16 05:49:19;;;;;;;4.93;3.80;;;21.30;59.00;;;;;;5028651;28;20807;-48
2022/09/16 05:51:46;;;;;;;5.13;4.63;;;21.30;59.10;;;;;;5022879;28;20501;-51
2022/09/16 05:54:12;;;;;;;5.10;4.17;;;21.40;59.10;;;;;;5026972;28;20821;-47
2022/09/16 05:56:38;;;;;;;5.23;4.40;;;21.40;59.00;;;;;;5026815;28;20451;-48
2022/09/16 05:59:04;;;;;;;7.30;4.70;;;21.40;59.00;;;;;;5025745;28;20807;-50
2022/09/16 06:01:32;;;;;;;6.60;4.70;;;21.40;58.90;;;;;;5025099;28;20231;-50
2022/09/16 06:04:01;;;;;;;6.30;5.00;;;21.40;58.50;;;;;;5030538;28;20428;-47
2022/09/16 06:06:32;;;;;;;7.63;5.17;;;21.30;58.60;;;;;;5021993;28;20534;-50
2022/09/16 06:09:03;;;;;;;5.67;5.27;;;21.20;59.00;;;;;;5027647;28;20451;-48
2022/09/16 06:11:28;;;;;;;4.53;3.87;;;21.10;59.40;;;;;;5021990;28;20445;-50
2022/09/16 06:13:57;;;;;;;7.23;4.67;;;21.00;59.60;;;;;;5027639;28;20953;-49
2022/09/16 06:16:27;;;;;;;4.10;3.60;;;20.90;59.60;;;;;;5018587;28;20561;-52
2022/09/16 06:18:54;;;;;;;4.83;4.43;;;20.80;59.70;;;;;;5021591;28;20878;-46
2022/09/16 06:21:20;;;;;;;3.50;3.17;;;20.80;59.90;;;;;;5024858;28;20498;-49
2022/09/16 06:23:46;;;;;;;5.00;4.50;;;20.80;60.00;;;;;;5030240;28;20808;-46
2022/09/16 06:26:14;;;;;;;4.80;4.00;;;20.70;59.80;;;;;;5026867;28;20435;-47
2022/09/16 06:28:40;;;;;;;6.13;4.53;;;20.70;59.90;;;;;;5023128;28;20201;-50
2022/09/16 06:31:11;;;;;;;4.87;4.40;;;20.60;60.10;;;;;;5020042;28;20486;-49
2022/09/16 06:33:37;;;;;;;4.60;4.20;;;20.60;60.40;;;;;;5036626;28;20205;-51
2022/09/16 06:36:12;;;;;;;5.50;5.00;;;20.50;61.20;;;;;;5036250;28;20498;-48
2022/09/16 06:38:38;;;;;;;5.07;4.67;;;20.50;61.60;;;;;;5037074;28;20482;-47
2022/09/16 06:41:06;;;;;;;5.63;4.53;;;20.40;61.90;;;;;;5031905;28;20487;-45
2022/09/16 06:43:32;;;;;;;4.83;4.33;;;20.40;62.10;;;;;;5035370;28;20454;-47
2022/09/16 06:46:00;;;;;;;6.40;4.03;;;20.40;61.70;;;;;;5030145;28;20505;-46
2022/09/16 06:48:26;;;;;;;6.80;4.93;;;20.40;61.80;;;;;;5035353;28;20531;-46
2022/09/16 06:51:00;;;;;;;5.00;4.50;;;20.40;62.30;;;;;;5035120;28;20479;-46
2022/09/16 06:53:27;;;;;;;5.10;4.03;;;20.30;62.30;;;;;;5034385;28;20897;-47
2022/09/16 06:55:53;;;;;;;8.27;4.87;;;20.30;62.60;;;;;;5036274;28;20450;-48
2022/09/16 06:58:19;;;;;;;4.87;4.40;;;20.30;62.70;;;;;;5036369;28;20452;-48
2022/09/16 07:00:44;;;;;;;9.23;5.07;;;20.30;62.90;;;;;;5035281;28;20221;-47
2022/09/16 07:03:10;;;;;;;5.17;4.77;;;20.30;63.10;;;;;;5035853;28;20283;-46
2022/09/16 07:05:35;;;;;;;7.53;4.43;;;20.30;63.40;;;;;;5026257;28;20218;-46
2022/09/16 07:08:01;;;;;;;5.37;4.30;;;20.30;63.40;;;;;;5035100;28;20550;-46
2022/09/16 07:10:27;;;;;;;5.50;3.73;;;20.20;63.10;;;;;;5034176;28;20303;-46
2022/09/16 07:12:52;;;;;;;8.13;3.47;;;20.10;62.20;;;;;;5035269;28;20205;-46
2022/09/16 07:15:18;;;;;;;4.80;4.27;;;20.10;61.70;;;;;;5034508;28;20185;-50
2022/09/16 07:17:43;;;;;;;4.63;3.57;;;20.00;61.60;;;;;;5037083;28;20224;-45
2022/09/16 07:20:09;;;;;;;10.13;3.80;;;19.90;62.10;;;;;;5035142;28;20225;-50
2022/09/16 07:22:34;;;;;;;5.80;3.83;;;19.90;62.20;;;;;;5035915;28;20647;-51
2022/09/16 07:25:00;;;;;;;8.53;3.73;;;19.90;62.30;;;;;;5035512;28;20197;-47
2022/09/16 07:27:26;;;;;;;4.23;3.60;;;19.90;62.50;;;;;;5035576;28;20201;-47
2022/09/16 07:29:53;;;;;;;9.57;4.17;;;19.80;62.10;;;;;;5036698;28;20224;-46
2022/09/16 07:32:18;;;;;;;4.03;3.63;;;19.80;62.30;;;;;;5035578;28;20852;-49
2022/09/16 07:34:44;;;;;;;5.13;3.40;;;19.80;62.50;;;;;;5029925;28;20449;-49
2022/09/16 07:37:11;;;;;;;6.40;3.00;;;19.70;62.40;;;;;;5016980;28;20202;-47
2022/09/16 07:39:37;;;;;;;5.60;3.33;;;19.70;62.50;;;;;;5028303;28;20225;-46
2022/09/16 07:42:03;;;;;;;4.80;2.80;;;19.80;62.50;;;;;;5032216;28;20451;-47
2022/09/16 07:44:29;;;;;;;8.70;3.67;;;19.80;62.50;;;;;;5027241;28;20236;-48
2022/09/16 07:46:54;;;;;;;5.70;3.80;;;19.80;62.70;;;;;;5029246;28;20189;-50
2022/09/16 07:49:20;;;;;;;10.10;4.13;;;19.70;63.20;;;;;;5025887;28;20445;-47
2022/09/16 07:51:46;;;;;;;4.37;3.57;;;19.80;63.50;;;;;;5029782;28;20284;-46
2022/09/16 07:54:15;;;;;;;5.60;3.90;;;19.80;63.70;;;;;;5029857;28;20200;-49
2022/09/16 07:56:42;;;;;;;3.93;3.53;;;19.80;63.70;;;;;;5030151;28;20482;-46
2022/09/16 07:59:12;;;;;;;5.57;3.30;;;19.80;63.30;;;;;;5032392;28;20850;-47
2022/09/16 08:01:37;;;;;;;6.37;3.80;;;19.80;63.00;;;;;;5029374;28;20506;-49
2022/09/16 08:04:03;;;;;;;3.63;2.80;;;19.80;63.00;;;;;;5030696;28;20943;-49
2022/09/16 08:06:30;;;;;;;4.97;3.50;;;19.80;62.70;;;;;;5033038;28;20579;-46
2022/09/16 08:08:58;;;;;;;5.70;3.40;;;19.90;62.30;;;;;;5029687;28;20193;-49
2022/09/16 08:11:25;;;;;;;2.53;2.23;;;20.00;62.50;;;;;;5025997;28;20529;-47
2022/09/16 08:13:51;;;;;;;6.30;3.20;;;20.00;62.00;;;;;;5030147;28;20490;-48
2022/09/16 08:16:19;;;;;;;6.70;3.20;;;20.10;61.30;;;;;;5026142;28;20451;-48
2022/09/16 08:18:48;;;;;;;5.10;3.23;;;20.10;61.40;;;;;;5028749;28;20436;-48
2022/09/16 08:21:23;;;;;;;7.17;3.57;;;20.10;62.20;;;;;;5027746;28;20484;-49
2022/09/16 08:23:48;;;;;;;5.90;3.20;;;20.10;61.50;;;;;;5031476;28;20451;-46
2022/09/16 08:26:15;;;;;;;4.77;3.20;;;20.10;61.60;;;;;;5025723;28;20436;-48
2022/09/16 08:28:43;;;;;;;4.97;3.00;;;20.10;61.40;;;;;;5032176;28;20198;-51
2022/09/16 08:31:09;;;;;;;2.90;2.37;;;20.10;61.30;;;;;;5023695;28;20866;-49
2022/09/16 08:33:37;;;;;;;5.17;3.00;;;20.10;60.80;;;;;;5004810;28;21280;-48
2022/09/16 08:36:09;;;;;;;4.20;3.00;;;20.10;60.10;;;;;;5030901;28;20773;-52
2022/09/16 08:38:35;;;;;;;6.63;3.40;;;20.10;60.50;;;;;;5025508;28;20444;-51
2022/09/16 08:41:24;;;;;;;3.70;2.90;;;20.00;61.20;;;;;;5025418;28;21009;-49
2022/09/16 08:44:23;;;;;;;4.43;3.40;;;20.10;60.90;;;;;;5022659;28;20276;-47
2022/09/16 08:47:00;;;;;;;4.70;2.80;;;20.10;61.40;;;;;;5028130;28;20436;-49
2022/09/16 08:49:40;;;;;;;4.57;3.23;;;20.10;61.30;;;;;;5031445;28;20469;-47
2022/09/16 08:52:30;;;;;;;5.70;3.43;;;20.10;60.70;;;;;;5029414;28;20546;-50
2022/09/16 08:55:30;;;;;;;3.73;2.80;;;20.20;60.70;;;;;;5023536;28;20456;-50
2022/09/16 08:58:20;;;;;;;4.77;3.87;;;20.20;60.50;;;;;;5013800;28;20450;-51
2022/09/16 09:00:53;;;;;;;4.93;3.90;;;20.20;60.40;;;;;;5023794;28;21703;-47
2022/09/16 09:03:38;;;;;;;7.30;3.87;;;20.20;60.10;;;;;;5026388;28;20471;-49
2022/09/16 09:06:22;;;;;;;11.40;3.73;;;20.20;60.40;;;;;;5026817;28;20452;-51
2022/09/16 09:08:58;;;;;;;5.87;4.20;;;20.10;60.80;;;;;;5029816;28;20974;-50
2022/09/16 09:11:49;;;;;;;7.27;3.90;;;20.20;60.70;;;;;;5021743;28;20455;-51
2022/09/16 09:14:22;;;;;;;5.33;3.37;;;20.20;61.00;;;;;;5027067;28;20456;-50
2022/09/16 09:17:00;;;;;;;5.43;4.23;;;20.20;62.00;;;;;;5029800;28;20509;-51
2022/09/16 09:19:44;;;;;;;5.20;4.17;;;20.30;62.30;;;;;;5027054;28;20462;-47
2022/09/16 09:22:16;;;;;;;6.43;3.93;;;20.40;62.80;;;;;;5027100;28;20455;-46
2022/09/16 09:25:07;;;;;;;4.13;3.57;;;20.30;62.40;;;;;;5029749;28;20907;-49
2022/09/16 09:27:43;;;;;;;4.23;3.83;;;20.40;62.50;;;;;;5024343;28;20483;-49
2022/09/16 09:30:18;;;;;;;4.40;3.50;;;20.30;61.80;;;;;;5025394;28;20439;-48
2022/09/16 09:33:10;;;;;;;6.10;4.10;;;20.40;62.00;;;;;;5026558;28;20945;-53
2022/09/16 09:35:49;;;;;;;3.73;3.27;;;20.40;62.80;;;;;;4993616;28;20493;-52
2022/09/16 09:38:26;;;;;;;4.23;3.83;;;20.40;61.70;;;;;;5029020;28;20444;-48
2022/09/16 09:40:57;;;;;;;5.10;4.60;;;20.50;62.00;;;;;;5028756;28;20487;-51
2022/09/16 09:43:35;;;;;;;6.40;4.50;;;20.40;61.80;;;;;;5022816;28;20490;-49
2022/09/16 09:46:25;;;;;;;6.50;4.43;;;20.50;61.80;;;;;;5025553;28;20535;-49
2022/09/16 09:49:00;;;;;;;5.30;4.63;;;20.50;61.80;;;;;;5025018;28;20599;-51
2022/09/16 09:51:36;;;;;;;9.53;5.27;;;20.50;61.90;;;;;;5029223;28;20513;-46
2022/09/16 09:54:28;;;;;;;5.50;4.90;;;20.60;61.20;;;;;;5022456;28;20861;-49
2022/09/16 09:57:17;;;;;;;7.80;4.63;;;20.50;60.80;;;;;;5024287;28;20448;-48
2022/09/16 09:59:51;;;;;;;5.87;5.27;;;20.50;61.00;;;;;;5025651;28;20531;-50
2022/09/16 10:02:20;;;;;;;5.53;4.77;;;20.60;61.20;;;;;;5017521;28;20448;-47
2022/09/16 10:04:46;;;;;;;6.63;5.27;;;20.60;60.90;;;;;;5026380;28;20994;-47
2022/09/16 10:07:16;;;;;;;8.40;5.00;;;20.60;61.20;;;;;;5029073;28;20497;-47
2022/09/16 10:09:51;;;;;;;6.80;4.70;;;20.70;60.40;;;;;;5023830;28;20452;-50
2022/09/16 10:12:30;;;;;;;13.20;5.80;;;20.40;60.00;;;;;;5020792;28;20629;-50
2022/09/16 10:14:56;;;;;;;12.47;6.03;;;20.40;60.80;;;;;;5023473;28;20432;-48
2022/09/16 10:17:22;;;;;;;7.33;5.50;;;20.40;61.00;;;;;;5024216;28;20455;-46
2022/09/16 10:20:00;;;;;;;5.77;5.10;;;20.40;60.90;;;;;;5025748;28;20220;-48
2022/09/16 10:22:31;;;;;;;9.67;5.30;;;20.40;60.90;;;;;;5018756;28;20197;-47
2022/09/16 10:24:58;;;;;;;10.70;5.70;;;20.40;60.50;;;;;;5025979;28;20475;-47
2022/09/16 10:27:31;;;;;;;7.63;6.13;;;20.40;60.30;;;;;;5024796;28;20451;-48
2022/09/16 10:30:20;;;;;;;6.93;5.87;;;20.30;60.90;;;;;;5019582;28;20448;-47
2022/09/16 10:33:12;;;;;;;9.00;5.57;;;20.40;61.10;;;;;;5029710;28;20529;-51
2022/09/16 10:35:40;;;;;;;6.53;5.00;;;20.20;60.90;;;;;;5018624;28;20530;-47
2022/09/16 10:38:11;;;;;;;7.70;5.07;;;20.20;61.60;;;;;;5023182;28;20455;-47
2022/09/16 10:40:38;;;;;;;7.00;5.60;;;20.20;62.80;;;;;;5026369;28;20491;-50
2022/09/16 10:43:13;;;;;;;5.93;4.90;;;20.00;61.50;;;;;;5027385;28;20455;-47
2022/09/16 10:45:46;;;;;;;8.10;6.33;;;19.90;61.90;;;;;;5028203;28;20454;-49
2022/09/16 10:48:15;;;;;;;8.70;5.97;;;19.90;61.80;;;;;;5027734;28;20440;-47
2022/09/16 10:50:55;;;;;;;9.53;5.70;;;19.90;62.50;;;;;;5025203;28;20436;-47
2022/09/16 10:53:37;;;;;;;12.97;6.73;;;20.10;62.80;;;;;;5028385;28;20881;-47
2022/09/16 10:56:15;;;;;;;8.13;5.03;;;20.20;63.20;;;;;;5028129;28;20509;-47
2022/09/16 10:58:41;;;;;;;7.27;4.87;;;20.20;63.00;;;;;;5024185;28;20436;-46
2022/09/16 11:01:27;;;;;;;10.83;5.50;;;20.20;62.50;;;;;;5024701;28;20492;-48
2022/09/16 11:04:10;;;;;;;7.17;4.10;;;20.20;62.30;;;;;;5026925;28;20268;-49
2022/09/16 11:07:12;;;;;;;7.57;4.40;;;20.20;61.80;;;;;;5019467;28;20439;-49
2022/09/16 11:09:56;;;;;;;4.93;3.57;;;20.20;62.20;;;;;;4998311;28;20531;-48
2022/09/16 11:12:28;;;;;;;8.93;4.67;;;20.10;62.50;;;;;;5025855;28;20526;-47
2022/09/16 11:15:21;;;;;;;5.13;4.07;;;20.00;61.40;;;;;;5027201;28;20458;-47
2022/09/16 11:18:13;;;;;;;4.57;3.63;;;20.00;61.40;;;;;;5026277;28;20462;-47
2022/09/16 11:20:59;;;;;;;5.90;4.23;;;19.90;61.30;;;;;;5023550;28;20978;-47
2022/09/16 11:23:28;;;;;;;5.10;3.80;;;19.80;61.80;;;;;;5028476;28;20982;-50
2022/09/16 11:26:24;;;;;;;4.40;4.00;;;19.60;61.00;;;;;;5025827;28;20821;-49
2022/09/16 11:28:59;;;;;;;5.57;3.50;;;19.60;62.40;;;;;;5028636;28;20944;-47
2022/09/16 11:31:40;;;;;;;4.63;3.30;;;19.60;61.50;;;;;;5029769;28;20898;-47
2022/09/16 11:34:42;;;;;;;4.13;3.30;;;19.50;61.80;;;;;;5026369;28;20454;-48
2022/09/16 11:37:33;;;;;;;5.53;4.10;;;19.30;61.30;;;;;;5030588;28;20534;-47
2022/09/16 11:40:08;;;;;;;3.90;3.03;;;19.20;61.60;;;;;;5024532;28;20855;-47
2022/09/16 11:42:41;;;;;;;4.13;3.03;;;19.20;61.30;;;;;;5031014;28;20450;-46
2022/09/16 11:45:31;;;;;;;4.33;3.50;;;19.40;60.80;;;;;;5027469;28;20448;-48
2022/09/16 11:48:06;;;;;;;7.43;3.60;;;19.50;61.20;;;;;;5026393;28;20563;-49
2022/09/16 11:50:37;;;;;;;4.33;3.40;;;19.40;61.10;;;;;;5022745;28;20530;-48
2022/09/16 11:53:37;;;;;;;6.60;3.77;;;19.30;61.10;;;;;;5022811;28;20455;-51
2022/09/16 11:56:57;;;;;;;4.30;3.90;;;19.40;61.50;;;;;;5029553;28;20465;-48
2022/09/16 11:59:34;;;;;;;4.40;3.10;;;19.20;61.20;;;;;;5004687;28;20467;-49
2022/09/16 12:02:24;;;;;;;5.90;3.37;;;19.00;62.60;;;;;;5029200;28;20462;-47
2022/09/16 12:04:58;;;;;;;5.97;3.80;;;19.20;63.70;;;;;;5002882;28;20503;-47
2022/09/16 12:07:34;;;;;;;4.77;3.13;;;19.50;63.70;;;;;;5031313;28;20444;-49
2022/09/16 12:10:25;;;;;;;6.60;3.37;;;19.50;62.80;;;;;;5021686;28;20436;-47
2022/09/16 12:13:12;;;;;;;7.00;3.23;;;19.60;60.50;;;;;;5027154;28;20452;-47
2022/09/16 12:15:51;;;;;;;4.77;2.70;;;19.60;59.60;;;;;;5023809;28;20452;-46
2022/09/16 12:18:34;;;;;;;2.90;2.50;;;19.90;60.10;;;;;;5030980;28;20878;-49
2022/09/16 12:21:30;;;;;;;5.30;2.40;;;20.10;59.00;;;;;;5026253;28;20479;-50
2022/09/16 12:24:08;;;;;;;3.00;2.30;;;20.10;57.50;;;;;;5022117;28;21012;-47
2022/09/16 12:26:42;;;;;;;5.53;2.40;;;20.20;55.00;;;;;;5025099;28;20444;-47
2022/09/16 12:29:19;;;;;;;3.87;1.80;;;20.20;54.30;;;;;;5026977;28;20451;-47
2022/09/16 12:31:58;;;;;;;4.33;2.30;;;20.00;54.10;;;;;;5028057;28;21024;-50
2022/09/16 12:34:30;;;;;;;6.73;2.20;;;20.10;53.90;;;;;;5022769;28;20889;-47
2022/09/16 12:37:10;;;;;;;1.97;1.87;;;20.30;53.80;;;;;;5016864;28;20460;-47
2022/09/16 12:39:35;;;;;;;2.80;1.83;;;20.40;53.70;;;;;;5026382;28;20447;-48
2022/09/16 12:42:16;;;;;;;2.13;1.80;;;20.10;53.10;;;;;;5028287;28;20443;-47
2022/09/16 12:44:48;;;;;;;2.93;1.70;;;20.30;52.60;;;;;;5028265;28;20296;-49
2022/09/16 12:47:38;;;;;;;3.13;1.83;;;20.40;52.50;;;;;;5014228;28;20453;-51
2022/09/16 12:50:07;;;;;;;6.97;2.00;;;20.60;52.40;;;;;;5018405;28;20476;-50
2022/09/16 12:52:43;;;;;;;3.57;1.80;;;20.70;52.40;;;;;;5027969;28;20452;-48
2022/09/16 12:55:27;;;;;;;5.07;1.90;;;20.80;50.50;;;;;;5029879;28;20443;-48
2022/09/16 12:58:06;;;;;;;5.80;2.07;;;20.80;49.90;;;;;;5024443;28;20448;-48
2022/09/16 13:00:42;;;;;;;2.27;2.07;;;20.80;50.50;;;;;;5024597;28;20498;-48
2022/09/16 13:03:21;;;;;;;2.77;1.80;;;20.80;50.10;;;;;;5025340;28;20448;-50
2022/09/16 13:05:50;;;;;;;2.80;1.90;;;20.70;50.20;;;;;;5026275;28;20477;-49
2022/09/16 13:08:29;;;;;;;5.70;2.20;;;20.50;50.30;;;;;;5022762;28;20524;-47
2022/09/16 13:11:16;;;;;;;4.03;2.10;;;20.30;50.10;;;;;;5024808;28;20512;-47
2022/09/16 13:13:47;;;;;;;2.80;1.97;;;20.50;51.20;;;;;;5023991;28;20943;-52
2022/09/16 13:16:12;;;;;;;5.27;3.00;;;20.80;51.40;;;;;;5025425;28;20794;-48
2022/09/16 13:18:42;;;;;;;3.30;1.87;;;20.70;50.40;;;;;;5028809;28;20431;-47